Saint Marys, OH

7:58 PM EDT on April 19, 2015 (GMT -0400)
320 N. Perry St., St. Marys,OH | | Change Station
CLOSE
Current Station
Personal Weather Station
Location: Saint Marys, OH
Elevation: 889 ft
Nearby Weather Stations

Elev 889 ft 40.54 °N, 84.39 °W | Updated 8 seconds ago

Rain
Rain
58.6 °F
Feels Like 58.6 °F
N
24.6
Wind Variable Wind from SSE
Gusts 30.0 mph

Today
High -- | Low -- °F
--% Chance of Precip.
Yesterday
High -- | Low -- °F
Precip. -- in
6:53 AM 8:20 PM
New Moon, 2% visible
Pressure 29.47 in
Visibility 2.0 miles
Clouds Mostly Cloudy 1200 ft
Overcast 1700 ft
Dew Point 58 °F
Humidity 98%
Rainfall 0.43 in
Snow Depth Not available.
UV 0.0 out of 12
Pollen 5.80 out of 12
Air Quality Not available.
Flu Activity Regional
METAR KAOH 192353Z AUTO 13014G29KT 2SM -RA BR BKN012 OVC017 15/14 A2947 RMK AO2 PK WND 13029/2345 SLP979 P0021 60068 T01500139 10228 20150 58029

More Conditions Fewer Conditions

Pressure 29.47 in
Visibility 2.0 miles
Clouds Mostly Cloudy 1200 ft
Overcast 1700 ft
Dew Point 58 °F
Humidity 98%
Rainfall 0.43 in
Snow Depth Not available.
UV 0.0 out of 12
Pollen 5.80 out of 12
Air Quality Not available.
Flu Activity Regional
METAR KAOH 192353Z AUTO 13014G29KT 2SM -RA BR BKN012 OVC017 15/14 A2947 RMK AO2 PK WND 13029/2345 SLP979 P0021 60068 T01500139 10228 20150 58029

More Conditions Fewer Conditions

10-Day Weather Forecast

Almanac

Astronomy

Apr. 19, 2015 Rise Set
Actual Time
Civil Twilight
Nautical Twilight
Astronomical Twilight
Moon
Length of Visible Light
Length of Day
Tomorrow will be .
, % of the Moon is Illuminated

Today's Extremes

State Highs State Lows

Community

WunderPhotos

Upload Photos

1,815,036 photos uploaded!

WunderBlogs® & News

Nearby

Air Quality

  Air Quality AQ Index Pollutant
Not available.

Snow Depth

Station Depth Elevation

Earthquake Activity

City Distance Mag. Time & Date
Minimum magnitude displayed is 2.5.

Coastal Water Temperatures

Place Temperature

Stations

Nearby Weather Stations

Station Location Temp. Windchill Dew Point Humidity Wind Precip. Elev Updated Type